createdAt,value
2018-02-03T00:00:08.946Z,7.30
2018-02-03T00:02:35.647Z,7.40
2018-02-03T00:05:02.344Z,6.80
2018-02-03T00:07:29.177Z,7.03
2018-02-03T00:09:55.889Z,7.20
2018-02-03T00:12:22.583Z,7.20
2018-02-03T00:14:49.273Z,6.80
2018-02-03T00:17:15.968Z,6.33
2018-02-03T00:19:42.665Z,6.10
2018-02-03T00:22:09.411Z,7.30
2018-02-03T00:24:36.103Z,6.40
2018-02-03T00:27:02.798Z,6.67
2018-02-03T00:29:29.483Z,6.77
2018-02-03T00:31:56.171Z,6.77
2018-02-03T00:34:23.053Z,6.57
2018-02-03T00:36:49.777Z,6.07
2018-02-03T00:39:16.443Z,7.00
2018-02-03T00:41:43.138Z,6.40
2018-02-03T00:44:09.832Z,6.47
2018-02-03T00:46:36.507Z,6.13
2018-02-03T00:49:03.200Z,6.40
2018-02-03T00:51:29.904Z,6.23
2018-02-03T00:53:56.614Z,6.40
2018-02-03T00:56:25.048Z,6.83
2018-02-03T00:58:51.852Z,6.03
2018-02-03T01:01:18.547Z,6.77
2018-02-03T01:03:45.350Z,6.50
2018-02-03T01:06:12.060Z,5.90
2018-02-03T01:08:38.775Z,6.53
2018-02-03T01:11:05.518Z,6.00
2018-02-03T01:13:32.216Z,5.97
2018-02-03T01:15:58.913Z,10.10
2018-02-03T01:18:25.617Z,30.67
2018-02-03T01:20:52.370Z,24.80
2018-02-03T01:23:19.095Z,27.90
2018-02-03T01:25:45.854Z,21.83
2018-02-03T01:28:12.542Z,18.03
2018-02-03T01:30:39.293Z,19.33
2018-02-03T01:33:05.980Z,18.37
2018-02-03T01:35:32.727Z,15.97
2018-02-03T01:37:59.435Z,19.30
2018-02-03T01:40:26.362Z,14.83
2018-02-03T01:42:53.121Z,11.10
2018-02-03T01:45:19.801Z,20.80
2018-02-03T01:47:52.350Z,13.10
2018-02-03T01:50:19.119Z,10.07
2018-02-03T01:52:45.815Z,12.90
2018-02-03T01:55:12.643Z,11.00
2018-02-03T01:57:39.332Z,13.90
2018-02-03T02:00:06.047Z,12.83
2018-02-03T02:02:32.797Z,8.83
2018-02-03T02:04:59.442Z,10.60
2018-02-03T02:07:26.407Z,9.13
2018-02-03T02:09:53.118Z,9.97
2018-02-03T02:12:19.838Z,10.40
2018-02-03T02:14:46.531Z,7.70
2018-02-03T02:17:13.240Z,8.83
2018-02-03T02:19:39.935Z,11.00
2018-02-03T02:22:06.631Z,7.10
2018-02-03T02:24:33.688Z,6.73
2018-02-03T02:27:00.380Z,8.60
2018-02-03T02:29:27.055Z,7.17
2018-02-03T02:31:53.747Z,6.60
2018-02-03T02:34:20.486Z,6.87
2018-02-03T02:36:47.151Z,9.03
2018-02-03T02:39:13.834Z,6.17
2018-02-03T02:41:40.528Z,6.20
2018-02-03T02:44:07.244Z,6.03
2018-02-03T02:46:33.926Z,6.03
2018-02-03T02:49:00.644Z,7.70
2018-02-03T02:51:27.325Z,5.50
2018-02-03T02:53:54.020Z,6.07
2018-02-03T02:56:20.704Z,6.27
2018-02-03T02:58:47.395Z,5.77
2018-02-03T03:01:14.153Z,6.47
2018-02-03T03:03:40.784Z,5.93
2018-02-03T03:06:07.478Z,6.47
2018-02-03T03:08:34.157Z,5.87
2018-02-03T03:11:01.014Z,5.60
2018-02-03T03:13:27.784Z,5.80
2018-02-03T03:15:54.418Z,5.40
2018-02-03T03:18:21.112Z,5.30
2018-02-03T03:20:47.795Z,5.20
2018-02-03T03:23:14.484Z,7.20
2018-02-03T03:25:41.175Z,6.43
2018-02-03T03:28:07.896Z,5.27
2018-02-03T03:30:34.931Z,5.43
2018-02-03T03:33:01.697Z,4.77
2018-02-03T03:35:28.385Z,5.97
2018-02-03T03:37:55.090Z,5.73
2018-02-03T03:40:22.091Z,5.57
2018-02-03T03:42:48.797Z,4.87
2018-02-03T03:45:15.496Z,5.50
2018-02-03T03:47:42.173Z,5.93
2018-02-03T03:50:08.880Z,6.23
2018-02-03T03:52:35.563Z,5.13
2018-02-03T03:55:02.242Z,4.80
2018-02-03T03:57:28.939Z,4.93
2018-02-03T03:59:55.630Z,4.50
2018-02-03T04:02:22.347Z,5.20
2018-02-03T04:04:49.288Z,4.77
2018-02-03T04:07:15.972Z,5.10
2018-02-03T04:09:42.659Z,4.63
2018-02-03T04:12:09.369Z,4.93
2018-02-03T04:14:36.382Z,4.93
2018-02-03T04:17:03.085Z,4.80
2018-02-03T04:19:29.884Z,5.00
2018-02-03T04:21:56.551Z,4.80
2018-02-03T04:24:23.235Z,4.30
2018-02-03T04:26:49.948Z,4.97
2018-02-03T04:29:16.630Z,4.57
2018-02-03T04:31:43.315Z,4.80
2018-02-03T04:34:09.998Z,4.80
2018-02-03T04:36:36.693Z,4.40
2018-02-03T04:39:03.393Z,4.50
2018-02-03T04:41:30.200Z,4.53
2018-02-03T04:43:56.862Z,4.90
2018-02-03T04:46:23.589Z,4.30
2018-02-03T04:48:50.354Z,4.70
2018-02-03T04:51:17.068Z,4.20
2018-02-03T04:53:43.759Z,4.07
2018-02-03T04:56:10.460Z,4.50
2018-02-03T04:58:37.158Z,4.53
2018-02-03T05:01:03.843Z,15.13
2018-02-03T05:03:30.552Z,9.40
2018-02-03T05:05:57.251Z,164.37
2018-02-03T05:08:23.951Z,125.20
2018-02-03T05:10:50.669Z,120.53
2018-02-03T05:13:17.368Z,118.43
2018-02-03T05:15:44.075Z,103.03
2018-02-03T05:18:10.784Z,100.63
2018-02-03T05:20:37.495Z,101.93
2018-02-03T05:23:04.245Z,94.53
2018-02-03T05:25:30.934Z,95.43
2018-02-03T05:27:57.776Z,77.43
2018-02-03T05:30:24.445Z,92.27
2018-02-03T05:32:51.152Z,91.40
2018-02-03T05:35:17.847Z,86.90
2018-02-03T05:37:44.535Z,79.50
2018-02-03T05:40:11.302Z,86.97
2018-02-03T05:42:37.983Z,85.90
2018-02-03T05:45:05.513Z,81.67
2018-02-03T05:47:32.207Z,74.07
2018-02-03T05:49:58.893Z,77.67
2018-02-03T05:52:25.957Z,78.83
2018-02-03T05:54:52.652Z,69.40
2018-02-03T05:57:19.356Z,73.53
2018-02-03T05:59:46.065Z,68.97
2018-02-03T06:02:12.758Z,65.73
2018-02-03T06:04:39.605Z,63.33
2018-02-03T06:07:06.440Z,60.17
2018-02-03T06:09:33.122Z,59.03
2018-02-03T06:11:59.891Z,57.43
2018-02-03T06:14:26.694Z,53.43
2018-02-03T06:16:53.412Z,49.80
2018-02-03T06:19:20.105Z,55.43
2018-02-03T06:21:46.826Z,55.07
2018-02-03T06:24:13.520Z,52.17
2018-02-03T06:26:40.339Z,49.97
2018-02-03T06:29:07.056Z,47.90
2018-02-03T06:31:33.864Z,51.87
2018-02-03T06:34:00.557Z,47.47
2018-02-03T06:36:27.250Z,48.67
2018-02-03T06:38:53.959Z,44.10
2018-02-03T06:41:20.675Z,47.57
2018-02-03T06:43:47.367Z,52.07
2018-02-03T06:46:14.054Z,40.63
2018-02-03T06:48:40.775Z,43.87
2018-02-03T06:51:07.575Z,41.33
2018-02-03T06:53:34.276Z,47.00
2018-02-03T06:56:00.975Z,41.53
2018-02-03T06:58:27.672Z,41.47
2018-02-03T07:00:54.459Z,36.57
2018-02-03T07:03:21.143Z,36.07
2018-02-03T07:05:48.151Z,36.27
2018-02-03T07:08:14.852Z,33.87
2018-02-03T07:10:41.555Z,34.13
2018-02-03T07:13:08.259Z,30.80
2018-02-03T07:15:35.066Z,32.03
2018-02-03T07:18:01.789Z,26.17
2018-02-03T07:20:28.515Z,27.57
2018-02-03T07:22:55.216Z,28.23
2018-02-03T07:25:21.979Z,29.83
2018-02-03T07:27:48.687Z,28.37
2018-02-03T07:30:15.395Z,24.13
2018-02-03T07:32:42.218Z,25.50
2018-02-03T07:35:09.036Z,27.73
2018-02-03T07:37:35.744Z,27.73
2018-02-03T07:40:02.453Z,22.90
2018-02-03T07:42:29.158Z,23.13
2018-02-03T07:44:55.862Z,22.43
2018-02-03T07:47:22.547Z,17.00
2018-02-03T07:49:49.242Z,22.53
2018-02-03T07:52:15.936Z,22.90
2018-02-03T07:54:42.892Z,23.73
2018-02-03T07:57:09.586Z,18.80
2018-02-03T07:59:36.276Z,18.57
2018-02-03T08:02:02.979Z,39.00
2018-02-03T08:04:29.672Z,30.93
2018-02-03T08:06:56.385Z,24.43
2018-02-03T08:09:24.704Z,26.03
2018-02-03T08:11:51.477Z,25.10
2018-02-03T08:14:18.164Z,23.03
2018-02-03T08:16:44.859Z,18.07
2018-02-03T08:19:11.639Z,17.23
2018-02-03T08:21:38.428Z,19.47
2018-02-03T08:24:05.127Z,16.23
2018-02-03T08:26:31.818Z,24.63
2018-02-03T08:28:58.534Z,17.43
2018-02-03T08:31:25.244Z,16.77
2018-02-03T08:33:51.936Z,15.37
2018-02-03T08:36:18.636Z,20.33
2018-02-03T08:38:45.346Z,16.07
2018-02-03T08:41:12.049Z,13.67
2018-02-03T08:43:38.768Z,14.20
2018-02-03T08:46:05.469Z,18.40
2018-02-03T08:48:32.163Z,15.47
2018-02-03T08:50:58.872Z,13.63
2018-02-03T08:53:25.649Z,13.43
2018-02-03T08:55:52.673Z,14.10
2018-02-03T08:58:19.372Z,12.40
2018-02-03T09:00:46.063Z,13.87
2018-02-03T09:03:12.758Z,10.77
2018-02-03T09:05:39.479Z,11.30
2018-02-03T09:08:06.191Z,11.80
2018-02-03T09:10:32.889Z,10.40
2018-02-03T09:12:59.592Z,9.90
2018-02-03T09:15:26.284Z,11.37
2018-02-03T09:17:52.980Z,12.20
2018-02-03T09:20:19.700Z,11.90
2018-02-03T09:22:46.404Z,8.30
2018-02-03T09:25:13.243Z,9.87
2018-02-03T09:27:40.082Z,10.57
2018-02-03T09:30:06.772Z,11.53
2018-02-03T09:32:33.486Z,10.43
2018-02-03T09:35:00.196Z,14.50
2018-02-03T09:37:26.969Z,10.83
2018-02-03T09:42:39.471Z,8.90
2018-02-03T09:45:06.177Z,13.07
2018-02-03T09:47:32.881Z,14.40
2018-02-03T09:49:59.676Z,10.97
2018-02-03T09:52:26.367Z,10.53
2018-02-03T09:54:53.069Z,10.83
2018-02-03T09:57:19.780Z,8.97
2018-02-03T09:59:46.493Z,10.40
2018-02-03T10:02:13.225Z,11.10
2018-02-03T10:04:40.052Z,12.20
2018-02-03T10:07:06.744Z,8.53
2018-02-03T10:09:33.471Z,7.80
2018-02-03T10:12:00.200Z,11.67
2018-02-03T10:14:27.028Z,11.13
2018-02-03T10:16:53.743Z,10.27
2018-02-03T10:19:20.504Z,9.87
2018-02-03T10:21:47.335Z,10.73
2018-02-03T10:24:14.047Z,7.10
2018-02-03T10:26:40.832Z,7.47
2018-02-03T10:29:07.583Z,6.90
2018-02-03T10:31:34.270Z,12.73
2018-02-03T10:34:00.992Z,8.23
2018-02-03T10:36:27.696Z,7.13
2018-02-03T10:38:54.485Z,8.40
2018-02-03T10:41:21.182Z,12.03
2018-02-03T10:43:47.871Z,9.87
2018-02-03T10:46:14.577Z,9.30
2018-02-03T10:48:41.283Z,6.17
2018-02-03T10:51:07.984Z,7.13
2018-02-03T10:53:34.674Z,5.13
2018-02-03T10:56:01.372Z,7.70
2018-02-03T10:58:28.115Z,5.10
2018-02-03T11:01:09.634Z,8.20
2018-02-03T11:03:36.440Z,5.43
2018-02-03T11:06:03.125Z,4.57
2018-02-03T11:08:29.850Z,5.27
2018-02-03T11:10:56.828Z,6.20
2018-02-03T11:13:23.508Z,15.33
2018-02-03T11:15:50.239Z,10.20
2018-02-03T11:18:16.942Z,12.10
2018-02-03T11:20:43.655Z,11.10
2018-02-03T11:23:10.346Z,16.40
2018-02-03T11:25:37.052Z,18.03
2018-02-03T11:28:03.777Z,8.30
2018-02-03T11:30:30.493Z,17.10
2018-02-03T11:32:57.180Z,15.30
2018-02-03T11:35:23.888Z,11.60
2018-02-03T11:37:50.603Z,16.90
2018-02-03T11:40:17.326Z,20.03
2018-02-03T11:42:44.019Z,12.17
2018-02-03T11:45:10.721Z,11.20
2018-02-03T11:47:37.424Z,15.43
2018-02-03T11:50:04.177Z,9.23
2018-02-03T11:52:30.893Z,10.70
2018-02-03T11:54:57.588Z,9.07
2018-02-03T11:57:24.263Z,5.00
2018-02-03T11:59:50.974Z,8.23
2018-02-03T12:02:17.674Z,12.17
2018-02-03T12:04:44.397Z,8.10
2018-02-03T12:07:11.088Z,11.13
2018-02-03T12:09:37.780Z,10.23
2018-02-03T12:12:04.476Z,15.13
2018-02-03T12:14:31.179Z,12.03
2018-02-03T12:16:57.893Z,15.17
2018-02-03T12:19:24.711Z,16.37
2018-02-03T12:21:51.477Z,18.90
2018-02-03T12:24:18.184Z,23.70
2018-02-03T12:26:44.940Z,129.33
2018-02-03T12:29:11.626Z,22.33
2018-02-03T12:31:38.328Z,26.03
2018-02-03T12:34:05.037Z,18.07
2018-02-03T12:36:31.738Z,14.20
2018-02-03T12:38:58.426Z,12.43
2018-02-03T12:41:25.236Z,14.07
2018-02-03T12:43:52.086Z,11.87
2018-02-03T12:46:18.779Z,13.20
2018-02-03T12:48:45.491Z,16.07
2018-02-03T12:51:12.196Z,13.30
2018-02-03T12:53:38.920Z,18.30
2018-02-03T12:56:05.650Z,8.00
2018-02-03T12:58:32.361Z,21.07
2018-02-03T13:00:59.051Z,12.67
2018-02-03T13:03:25.753Z,11.20
2018-02-03T13:05:52.488Z,13.50
2018-02-03T13:08:19.196Z,8.03
2018-02-03T13:10:45.897Z,7.97
2018-02-03T13:13:12.586Z,9.23
2018-02-03T13:15:39.276Z,8.20
2018-02-03T13:18:06.011Z,12.97
2018-02-03T13:20:32.696Z,6.13
2018-02-03T13:22:59.478Z,6.80
2018-02-03T13:25:26.177Z,8.57
2018-02-03T13:27:52.865Z,5.87
2018-02-03T13:30:19.594Z,9.90
2018-02-03T13:32:46.287Z,8.43
2018-02-03T13:35:12.985Z,7.40
2018-02-03T13:37:39.697Z,4.80
2018-02-03T13:40:06.363Z,6.27
2018-02-03T13:42:33.209Z,8.87
2018-02-03T13:44:59.951Z,8.23
2018-02-03T13:47:26.665Z,5.13
2018-02-03T13:49:53.372Z,8.23
2018-02-03T13:52:20.070Z,4.90
2018-02-03T13:54:46.783Z,10.93
2018-02-03T13:57:13.465Z,5.10
2018-02-03T13:59:40.152Z,8.17
2018-02-03T14:02:06.839Z,5.07
2018-02-03T14:04:33.564Z,5.83
2018-02-03T14:07:00.276Z,9.97
2018-02-03T14:09:27.197Z,5.37
2018-02-03T14:11:53.874Z,5.13
2018-02-03T14:14:20.576Z,4.70
2018-02-03T14:16:47.306Z,7.03
2018-02-03T14:19:14.015Z,6.83
2018-02-03T14:21:40.701Z,5.30
2018-02-03T14:24:13.149Z,4.83
2018-02-03T14:26:39.844Z,8.33
2018-02-03T14:29:06.532Z,8.00
2018-02-03T14:31:33.243Z,17.50
2018-02-03T14:33:59.965Z,25.57
2018-02-03T14:36:26.734Z,17.97
2018-02-03T14:38:53.429Z,17.37
2018-02-03T14:41:20.134Z,20.40
2018-02-03T14:43:46.848Z,21.50
2018-02-03T14:46:13.549Z,16.20
2018-02-03T14:48:40.266Z,13.43
2018-02-03T14:51:06.959Z,9.77
2018-02-03T14:53:33.671Z,18.67
2018-02-03T14:56:00.365Z,11.33
2018-02-03T14:58:27.064Z,12.17
2018-02-03T15:00:53.798Z,9.20
2018-02-03T15:03:20.486Z,11.33
2018-02-03T15:05:47.184Z,8.13
2018-02-03T15:08:14.033Z,13.10
2018-02-03T15:10:41.198Z,9.93
2018-02-03T15:13:07.862Z,8.27
2018-02-03T15:15:34.572Z,10.80
2018-02-03T15:18:01.330Z,7.47
2018-02-03T15:20:28.044Z,14.07
2018-02-03T15:22:54.741Z,13.97
2018-02-03T15:25:21.452Z,9.63
2018-02-03T15:27:48.232Z,8.87
2018-02-03T15:30:14.959Z,7.17
2018-02-03T15:32:41.661Z,9.93
2018-02-03T15:35:08.358Z,10.00
2018-02-03T15:37:35.151Z,9.90
2018-02-03T15:40:01.843Z,7.40
2018-02-03T15:42:28.544Z,7.53
2018-02-03T15:44:55.234Z,6.47
2018-02-03T15:47:21.946Z,6.30
2018-02-03T15:49:48.647Z,6.90
2018-02-03T15:52:15.327Z,7.00
2018-02-03T15:54:42.053Z,9.57
2018-02-03T15:57:08.736Z,8.37
2018-02-03T15:59:35.457Z,6.33
2018-02-03T16:02:02.367Z,8.07
2018-02-03T16:04:29.058Z,7.23
2018-02-03T16:06:55.771Z,8.23
2018-02-03T16:09:22.501Z,6.27
2018-02-03T16:11:49.199Z,6.10
2018-02-03T16:14:15.892Z,8.77
2018-02-03T16:16:42.589Z,5.43
2018-02-03T16:19:10.207Z,5.67
2018-02-03T16:21:36.959Z,6.37
2018-02-03T16:24:03.644Z,5.30
2018-02-03T16:26:30.448Z,10.90
2018-02-03T16:28:57.141Z,6.40
2018-02-03T16:31:23.864Z,6.03
2018-02-03T16:33:50.550Z,5.07
2018-02-03T16:36:17.231Z,6.53
2018-02-03T16:38:43.956Z,5.23
2018-02-03T16:41:10.881Z,5.33
2018-02-03T16:43:37.617Z,5.30
2018-02-03T16:46:04.321Z,5.10
2018-02-03T16:48:31.030Z,6.00
2018-02-03T16:50:57.934Z,6.33
2018-02-03T16:53:24.628Z,9.33
2018-02-03T16:55:51.320Z,5.17
2018-02-03T16:58:18.007Z,5.27
2018-02-03T17:00:44.716Z,4.90
2018-02-03T17:03:11.411Z,5.47
2018-02-03T17:05:38.126Z,4.53
2018-02-03T17:08:04.834Z,4.57
2018-02-03T17:10:31.520Z,5.10
2018-02-03T17:12:58.331Z,5.03
2018-02-03T17:15:25.027Z,4.40
2018-02-03T17:17:51.996Z,5.20
2018-02-03T17:20:18.716Z,7.90
2018-02-03T17:22:45.432Z,3.90
2018-02-03T17:25:12.134Z,6.33
2018-02-03T17:27:38.817Z,6.77
2018-02-03T17:30:05.537Z,6.03
2018-02-03T17:32:32.232Z,3.93
2018-02-03T17:34:58.981Z,4.50
2018-02-03T17:37:31.469Z,4.43
2018-02-03T17:39:58.156Z,4.37
2018-02-03T17:42:24.851Z,4.40
2018-02-03T17:44:51.544Z,5.20
2018-02-03T17:47:18.414Z,5.60
2018-02-03T17:49:45.107Z,4.70
2018-02-03T17:52:11.828Z,5.27
2018-02-03T17:54:38.575Z,4.30
2018-02-03T17:57:11.065Z,3.90
2018-02-03T17:59:37.782Z,7.00
2018-02-03T18:02:04.543Z,4.00
2018-02-03T18:04:31.243Z,8.97
2018-02-03T18:07:03.687Z,4.70
2018-02-03T18:09:30.587Z,3.67
2018-02-03T18:11:57.274Z,4.17
2018-02-03T18:14:23.976Z,3.73
2018-02-03T18:16:50.695Z,7.13
2018-02-03T18:19:17.397Z,5.63
2018-02-03T18:21:44.098Z,5.97
2018-02-03T18:24:10.822Z,10.30
2018-02-03T18:26:37.515Z,6.57
2018-02-03T18:29:04.271Z,6.37
2018-02-03T18:31:30.990Z,7.70
2018-02-03T18:33:57.679Z,6.73
2018-02-03T18:36:24.372Z,6.43
2018-02-03T18:38:51.091Z,6.83
2018-02-03T18:41:17.905Z,6.20
2018-02-03T18:43:44.584Z,9.50
2018-02-03T18:46:11.391Z,12.20
2018-02-03T18:48:38.138Z,8.07
2018-02-03T18:51:04.827Z,16.73
2018-02-03T18:53:31.924Z,18.13
2018-02-03T18:55:58.625Z,6.70
2018-02-03T18:58:25.330Z,10.93
2018-02-03T19:00:52.215Z,15.10
2018-02-03T19:03:18.920Z,16.37
2018-02-03T19:05:45.990Z,11.93
2018-02-03T19:08:12.805Z,14.30
2018-02-03T19:10:39.511Z,14.17
2018-02-03T19:13:06.226Z,16.70
2018-02-03T19:15:32.947Z,9.63
2018-02-03T19:17:59.654Z,10.80
2018-02-03T19:20:26.362Z,17.37
2018-02-03T19:22:53.059Z,16.93
2018-02-03T19:25:19.789Z,12.20
2018-02-03T19:27:46.558Z,10.80
2018-02-03T19:30:13.755Z,18.67
2018-02-03T19:32:40.451Z,13.43
2018-02-03T19:35:07.154Z,17.57
2018-02-03T19:37:33.844Z,18.70
2018-02-03T19:40:00.549Z,27.43
2018-02-03T19:42:27.266Z,17.53
2018-02-03T19:44:53.971Z,19.87
2018-02-03T19:47:20.686Z,17.83
2018-02-03T19:49:47.394Z,24.27
2018-02-03T19:52:14.083Z,23.10
2018-02-03T19:54:40.848Z,25.17
2018-02-03T19:57:07.545Z,24.07
2018-02-03T19:59:34.435Z,26.43
2018-02-03T20:02:01.130Z,16.33
2018-02-03T20:04:27.841Z,24.07
2018-02-03T20:06:54.539Z,25.67
2018-02-03T20:09:21.492Z,31.03
2018-02-03T20:11:48.184Z,19.27
2018-02-03T20:14:14.895Z,22.50
2018-02-03T20:16:41.664Z,24.67
2018-02-03T20:19:08.368Z,23.20
2018-02-03T20:21:35.134Z,18.80
2018-02-03T20:24:01.849Z,20.47
2018-02-03T20:26:28.580Z,23.67
2018-02-03T20:28:55.431Z,22.40
2018-02-03T20:31:22.139Z,19.17
2018-02-03T20:33:48.836Z,19.67
2018-02-03T20:36:15.565Z,23.50
2018-02-03T20:38:42.370Z,27.83
2018-02-03T20:41:09.215Z,23.63
2018-02-03T20:43:35.919Z,17.30
2018-02-03T20:46:02.625Z,17.67
2018-02-03T20:48:29.341Z,17.30
2018-02-03T20:50:56.066Z,19.00
2018-02-03T20:53:22.823Z,18.73
2018-02-03T20:55:49.593Z,17.50
2018-02-03T20:58:16.341Z,13.30
2018-02-03T21:00:43.084Z,40.97
2018-02-03T21:03:09.784Z,42.00
2018-02-03T21:05:36.545Z,37.13
2018-02-03T21:08:03.252Z,30.23
2018-02-03T21:10:30.028Z,29.37
2018-02-03T21:12:56.718Z,28.03
2018-02-03T21:15:23.466Z,32.33
2018-02-03T21:17:51.330Z,23.00
2018-02-03T21:20:18.099Z,28.40
2018-02-03T21:22:46.152Z,25.10
2018-02-03T21:25:12.978Z,28.17
2018-02-03T21:27:39.719Z,21.00
2018-02-03T21:30:06.465Z,18.00
2018-02-03T21:32:33.270Z,21.20
2018-02-03T21:35:00.007Z,22.40
2018-02-03T21:37:26.776Z,21.13
2018-02-03T21:39:53.570Z,23.73
2018-02-03T21:42:20.410Z,17.87
2018-02-03T21:44:47.122Z,25.13
2018-02-03T21:47:13.888Z,23.60
2018-02-03T21:49:40.649Z,17.40
2018-02-03T21:52:07.393Z,18.37
2018-02-03T21:54:34.341Z,18.20
2018-02-03T21:57:01.039Z,19.33
2018-02-03T21:59:27.751Z,17.37
2018-02-03T22:01:54.455Z,15.47
2018-02-03T22:04:21.167Z,18.97
2018-02-03T22:06:47.944Z,18.03
2018-02-03T22:09:14.668Z,16.53
2018-02-03T22:11:41.595Z,18.60
2018-02-03T22:14:08.308Z,16.30
2018-02-03T22:16:35.016Z,14.17
2018-02-03T22:19:01.752Z,17.37
2018-02-03T22:21:28.464Z,17.80
2018-02-03T22:23:55.167Z,12.53
2018-02-03T22:26:21.893Z,15.20
2018-02-03T22:28:48.604Z,13.10
2018-02-03T22:31:15.338Z,14.23
2018-02-03T22:33:42.215Z,14.17
2018-02-03T22:36:08.911Z,17.70
2018-02-03T22:38:35.630Z,11.93
2018-02-03T22:41:02.371Z,15.10
2018-02-03T22:43:29.211Z,15.83
2018-02-03T22:45:55.919Z,13.27
2018-02-03T22:48:22.635Z,14.60
2018-02-03T22:50:49.328Z,13.73
2018-02-03T22:53:16.035Z,13.97
2018-02-03T22:55:42.788Z,12.87
2018-02-03T22:58:09.495Z,12.13
2018-02-03T23:00:36.306Z,11.47
2018-02-03T23:03:03.018Z,12.80
2018-02-03T23:05:29.706Z,13.10
2018-02-03T23:07:56.781Z,12.63
2018-02-03T23:10:23.477Z,13.47
2018-02-03T23:12:50.172Z,11.93
2018-02-03T23:15:16.881Z,13.73
2018-02-03T23:17:43.658Z,15.30
2018-02-03T23:20:10.380Z,13.53
2018-02-03T23:22:37.065Z,12.07
2018-02-03T23:25:03.755Z,9.80
2018-02-03T23:27:30.446Z,11.90
2018-02-03T23:29:57.228Z,11.17
2018-02-03T23:32:23.949Z,11.17
2018-02-03T23:34:50.757Z,12.23
2018-02-03T23:37:17.483Z,10.33
2018-02-03T23:39:44.240Z,11.67
2018-02-03T23:42:10.938Z,9.07
2018-02-03T23:44:37.671Z,10.07
2018-02-03T23:47:04.644Z,10.10
2018-02-03T23:49:31.334Z,11.27
2018-02-03T23:51:58.040Z,9.73
2018-02-03T23:54:24.748Z,11.27
2018-02-03T23:56:51.464Z,11.37
2018-02-03T23:59:18.167Z,10.50
